sensor_id;sensor_type;location;lat;lon;timestamp;P1;durP1;ratioP1;P2;durP2;ratioP2
9854;SDS011;4966;48.112;9.282;2023-02-25T00:02:09;13.98;;;5.20;;
9854;SDS011;4966;48.112;9.282;2023-02-25T00:04:35;20.88;;;5.90;;
9854;SDS011;4966;48.112;9.282;2023-02-25T00:07:01;16.15;;;5.60;;
9854;SDS011;4966;48.112;9.282;2023-02-25T00:09:26;15.43;;;5.20;;
9854;SDS011;4966;48.112;9.282;2023-02-25T00:11:53;17.25;;;6.93;;
9854;SDS011;4966;48.112;9.282;2023-02-25T00:14:18;16.30;;;5.93;;
9854;SDS011;4966;48.112;9.282;2023-02-25T00:16:43;17.92;;;6.38;;
9854;SDS011;4966;48.112;9.282;2023-02-25T00:19:09;18.63;;;6.40;;
9854;SDS011;4966;48.112;9.282;2023-02-25T00:21:35;19.85;;;7.15;;
9854;SDS011;4966;48.112;9.282;2023-02-25T00:24:02;14.18;;;5.40;;
9854;SDS011;4966;48.112;9.282;2023-02-25T00:26:28;17.13;;;5.57;;
9854;SDS011;4966;48.112;9.282;2023-02-25T00:28:53;16.58;;;5.57;;
9854;SDS011;4966;48.112;9.282;2023-02-25T00:31:19;14.35;;;5.70;;
9854;SDS011;4966;48.112;9.282;2023-02-25T00:33:46;14.73;;;5.28;;
9854;SDS011;4966;48.112;9.282;2023-02-25T00:36:13;21.35;;;5.85;;
9854;SDS011;4966;48.112;9.282;2023-02-25T00:38:44;13.15;;;5.38;;
9854;SDS011;4966;48.112;9.282;2023-02-25T00:41:12;16.50;;;5.60;;
9854;SDS011;4966;48.112;9.282;2023-02-25T00:43:40;19.75;;;5.70;;
9854;SDS011;4966;48.112;9.282;2023-02-25T00:46:07;13.13;;;4.80;;
9854;SDS011;4966;48.112;9.282;2023-02-25T00:48:34;15.88;;;5.68;;
9854;SDS011;4966;48.112;9.282;2023-02-25T00:51:20;14.80;;;4.97;;
9854;SDS011;4966;48.112;9.282;2023-02-25T00:53:47;10.93;;;4.63;;
9854;SDS011;4966;48.112;9.282;2023-02-25T00:56:13;15.38;;;4.53;;
9854;SDS011;4966;48.112;9.282;2023-02-25T00:58:40;11.13;;;4.90;;
9854;SDS011;4966;48.112;9.282;2023-02-25T01:01:15;12.10;;;5.18;;
9854;SDS011;4966;48.112;9.282;2023-02-25T01:03:43;11.38;;;4.50;;
9854;SDS011;4966;48.112;9.282;2023-02-25T01:06:08;10.75;;;4.72;;
9854;SDS011;4966;48.112;9.282;2023-02-25T01:08:34;11.30;;;4.40;;
9854;SDS011;4966;48.112;9.282;2023-02-25T01:11:00;9.73;;;4.30;;
9854;SDS011;4966;48.112;9.282;2023-02-25T01:13:38;12.20;;;4.45;;
9854;SDS011;4966;48.112;9.282;2023-02-25T01:16:14;10.18;;;4.03;;
9854;SDS011;4966;48.112;9.282;2023-02-25T01:18:42;11.52;;;3.72;;
9854;SDS011;4966;48.112;9.282;2023-02-25T01:21:13;11.00;;;4.10;;
9854;SDS011;4966;48.112;9.282;2023-02-25T01:23:41;10.93;;;3.53;;
9854;SDS011;4966;48.112;9.282;2023-02-25T01:26:07;11.10;;;3.88;;
9854;SDS011;4966;48.112;9.282;2023-02-25T01:28:33;10.25;;;4.18;;
9854;SDS011;4966;48.112;9.282;2023-02-25T01:30:59;12.10;;;4.55;;
9854;SDS011;4966;48.112;9.282;2023-02-25T01:33:24;8.23;;;3.85;;
9854;SDS011;4966;48.112;9.282;2023-02-25T01:35:49;7.93;;;3.42;;
9854;SDS011;4966;48.112;9.282;2023-02-25T01:38:15;8.50;;;3.72;;
9854;SDS011;4966;48.112;9.282;2023-02-25T01:40:40;8.23;;;3.33;;
9854;SDS011;4966;48.112;9.282;2023-02-25T01:43:06;9.73;;;3.22;;
9854;SDS011;4966;48.112;9.282;2023-02-25T01:45:40;8.82;;;4.10;;
9854;SDS011;4966;48.112;9.282;2023-02-25T01:48:09;10.43;;;3.47;;
9854;SDS011;4966;48.112;9.282;2023-02-25T01:50:48;8.27;;;3.47;;
9854;SDS011;4966;48.112;9.282;2023-02-25T01:53:17;9.50;;;3.40;;
9854;SDS011;4966;48.112;9.282;2023-02-25T01:55:47;9.00;;;3.92;;
9854;SDS011;4966;48.112;9.282;2023-02-25T01:58:13;8.07;;;3.33;;
9854;SDS011;4966;48.112;9.282;2023-02-25T02:00:39;7.47;;;3.25;;
9854;SDS011;4966;48.112;9.282;2023-02-25T02:03:05;8.98;;;3.45;;
9854;SDS011;4966;48.112;9.282;2023-02-25T02:06:02;7.05;;;3.53;;
9854;SDS011;4966;48.112;9.282;2023-02-25T02:08:37;6.88;;;3.13;;
9854;SDS011;4966;48.112;9.282;2023-02-25T02:11:04;7.32;;;2.95;;
9854;SDS011;4966;48.112;9.282;2023-02-25T02:13:30;9.63;;;3.75;;
9854;SDS011;4966;48.112;9.282;2023-02-25T02:16:10;9.48;;;4.03;;
9854;SDS011;4966;48.112;9.282;2023-02-25T02:18:50;5.85;;;2.17;;
9854;SDS011;4966;48.112;9.282;2023-02-25T02:28:06;3.35;;;1.48;;
9854;SDS011;4966;48.112;9.282;2023-02-25T02:32:56;4.05;;;1.58;;
9854;SDS011;4966;48.112;9.282;2023-02-25T02:35:35;4.88;;;1.80;;
9854;SDS011;4966;48.112;9.282;2023-02-25T02:38:13;3.75;;;1.80;;
9854;SDS011;4966;48.112;9.282;2023-02-25T02:44:04;3.47;;;1.45;;
9854;SDS011;4966;48.112;9.282;2023-02-25T02:46:58;5.00;;;1.92;;
9854;SDS011;4966;48.112;9.282;2023-02-25T02:49:29;3.22;;;1.45;;
9854;SDS011;4966;48.112;9.282;2023-02-25T02:51:59;3.35;;;1.70;;
9854;SDS011;4966;48.112;9.282;2023-02-25T02:54:33;4.47;;;1.60;;
9854;SDS011;4966;48.112;9.282;2023-02-25T02:57:01;3.58;;;1.77;;
9854;SDS011;4966;48.112;9.282;2023-02-25T02:59:32;4.55;;;1.73;;
9854;SDS011;4966;48.112;9.282;2023-02-25T03:02:50;4.28;;;1.70;;
9854;SDS011;4966;48.112;9.282;2023-02-25T03:05:00;4.80;;;1.77;;
9854;SDS011;4966;48.112;9.282;2023-02-25T03:07:30;5.53;;;1.98;;
9854;SDS011;4966;48.112;9.282;2023-02-25T03:09:59;4.38;;;1.70;;
9854;SDS011;4966;48.112;9.282;2023-02-25T03:12:27;4.15;;;1.63;;
9854;SDS011;4966;48.112;9.282;2023-02-25T03:14:54;3.80;;;1.95;;
9854;SDS011;4966;48.112;9.282;2023-02-25T03:17:21;5.20;;;2.03;;
9854;SDS011;4966;48.112;9.282;2023-02-25T03:22:26;7.38;;;2.38;;
9854;SDS011;4966;48.112;9.282;2023-02-25T03:27:36;5.90;;;2.42;;
9854;SDS011;4966;48.112;9.282;2023-02-25T03:30:08;9.05;;;3.00;;
9854;SDS011;4966;48.112;9.282;2023-02-25T03:32:38;7.95;;;3.08;;
9854;SDS011;4966;48.112;9.282;2023-02-25T03:35:07;9.40;;;3.30;;
9854;SDS011;4966;48.112;9.282;2023-02-25T03:37:34;7.40;;;3.25;;
9854;SDS011;4966;48.112;9.282;2023-02-25T03:40:03;8.27;;;3.63;;
9854;SDS011;4966;48.112;9.282;2023-02-25T03:42:36;8.25;;;3.63;;
9854;SDS011;4966;48.112;9.282;2023-02-25T03:45:06;10.25;;;3.55;;
9854;SDS011;4966;48.112;9.282;2023-02-25T03:47:34;11.35;;;4.03;;
9854;SDS011;4966;48.112;9.282;2023-02-25T03:50:07;11.60;;;3.60;;
9854;SDS011;4966;48.112;9.282;2023-02-25T03:52:37;16.48;;;3.67;;
9854;SDS011;4966;48.112;9.282;2023-02-25T03:55:03;7.85;;;3.38;;
9854;SDS011;4966;48.112;9.282;2023-02-25T03:57:36;8.07;;;3.33;;
9854;SDS011;4966;48.112;9.282;2023-02-25T04:00:07;11.43;;;4.18;;
9854;SDS011;4966;48.112;9.282;2023-02-25T04:02:47;7.47;;;3.38;;
9854;SDS011;4966;48.112;9.282;2023-02-25T04:05:13;10.75;;;3.53;;
9854;SDS011;4966;48.112;9.282;2023-02-25T04:07:39;9.82;;;3.53;;
9854;SDS011;4966;48.112;9.282;2023-02-25T04:10:05;11.90;;;3.63;;
9854;SDS011;4966;48.112;9.282;2023-02-25T04:12:33;9.52;;;3.38;;
9854;SDS011;4966;48.112;9.282;2023-02-25T04:14:58;11.88;;;3.90;;
9854;SDS011;4966;48.112;9.282;2023-02-25T04:17:24;7.90;;;3.55;;
9854;SDS011;4966;48.112;9.282;2023-02-25T04:19:49;8.82;;;3.58;;
9854;SDS011;4966;48.112;9.282;2023-02-25T04:22:15;8.60;;;3.38;;
9854;SDS011;4966;48.112;9.282;2023-02-25T04:24:40;7.85;;;3.88;;
9854;SDS011;4966;48.112;9.282;2023-02-25T04:27:05;7.63;;;3.40;;
9854;SDS011;4966;48.112;9.282;2023-02-25T04:29:31;11.55;;;3.65;;
9854;SDS011;4966;48.112;9.282;2023-02-25T04:31:56;11.18;;;3.63;;
9854;SDS011;4966;48.112;9.282;2023-02-25T04:34:22;8.77;;;3.67;;
9854;SDS011;4966;48.112;9.282;2023-02-25T04:36:49;7.75;;;3.65;;
9854;SDS011;4966;48.112;9.282;2023-02-25T04:39:16;9.35;;;4.05;;
9854;SDS011;4966;48.112;9.282;2023-02-25T04:41:42;6.40;;;2.97;;
9854;SDS011;4966;48.112;9.282;2023-02-25T04:44:08;7.47;;;3.63;;
9854;SDS011;4966;48.112;9.282;2023-02-25T04:46:34;9.02;;;3.97;;
9854;SDS011;4966;48.112;9.282;2023-02-25T04:49:02;9.73;;;3.53;;
9854;SDS011;4966;48.112;9.282;2023-02-25T04:51:27;6.65;;;3.08;;
9854;SDS011;4966;48.112;9.282;2023-02-25T04:53:53;9.65;;;4.10;;
9854;SDS011;4966;48.112;9.282;2023-02-25T04:56:18;8.50;;;3.58;;
9854;SDS011;4966;48.112;9.282;2023-02-25T04:58:44;8.50;;;3.60;;
9854;SDS011;4966;48.112;9.282;2023-02-25T05:01:09;10.43;;;4.00;;
9854;SDS011;4966;48.112;9.282;2023-02-25T05:03:35;9.85;;;3.78;;
9854;SDS011;4966;48.112;9.282;2023-02-25T05:06:01;9.50;;;3.67;;
9854;SDS011;4966;48.112;9.282;2023-02-25T05:08:28;9.13;;;3.45;;
9854;SDS011;4966;48.112;9.282;2023-02-25T05:10:54;7.53;;;3.63;;
9854;SDS011;4966;48.112;9.282;2023-02-25T05:13:19;7.75;;;3.65;;
9854;SDS011;4966;48.112;9.282;2023-02-25T05:15:46;10.50;;;3.50;;
9854;SDS011;4966;48.112;9.282;2023-02-25T05:18:11;10.13;;;3.35;;
9854;SDS011;4966;48.112;9.282;2023-02-25T05:20:41;8.48;;;3.55;;
9854;SDS011;4966;48.112;9.282;2023-02-25T05:23:07;10.18;;;3.75;;
9854;SDS011;4966;48.112;9.282;2023-02-25T05:25:34;11.00;;;3.50;;
9854;SDS011;4966;48.112;9.282;2023-02-25T05:28:00;8.50;;;3.40;;
9854;SDS011;4966;48.112;9.282;2023-02-25T05:30:25;8.48;;;3.25;;
9854;SDS011;4966;48.112;9.282;2023-02-25T05:32:50;10.77;;;4.80;;
9854;SDS011;4966;48.112;9.282;2023-02-25T05:35:16;7.97;;;3.90;;
9854;SDS011;4966;48.112;9.282;2023-02-25T05:37:42;9.50;;;3.85;;
9854;SDS011;4966;48.112;9.282;2023-02-25T05:40:07;11.57;;;4.63;;
9854;SDS011;4966;48.112;9.282;2023-02-25T05:42:33;12.85;;;4.80;;
9854;SDS011;4966;48.112;9.282;2023-02-25T05:44:59;12.50;;;5.25;;
9854;SDS011;4966;48.112;9.282;2023-02-25T05:47:25;12.63;;;6.53;;
9854;SDS011;4966;48.112;9.282;2023-02-25T05:49:50;10.48;;;4.43;;
9854;SDS011;4966;48.112;9.282;2023-02-25T05:52:16;10.63;;;4.10;;
9854;SDS011;4966;48.112;9.282;2023-02-25T05:54:41;9.27;;;4.10;;
9854;SDS011;4966;48.112;9.282;2023-02-25T05:57:06;9.18;;;4.25;;
9854;SDS011;4966;48.112;9.282;2023-02-25T05:59:32;10.00;;;4.20;;
9854;SDS011;4966;48.112;9.282;2023-02-25T06:01:57;11.80;;;3.92;;
9854;SDS011;4966;48.112;9.282;2023-02-25T06:04:23;11.77;;;4.00;;
9854;SDS011;4966;48.112;9.282;2023-02-25T06:06:49;8.38;;;3.90;;
9854;SDS011;4966;48.112;9.282;2023-02-25T06:09:16;10.57;;;3.75;;
9854;SDS011;4966;48.112;9.282;2023-02-25T06:11:45;12.32;;;4.55;;
9854;SDS011;4966;48.112;9.282;2023-02-25T06:14:13;12.45;;;4.32;;
9854;SDS011;4966;48.112;9.282;2023-02-25T06:16:39;13.18;;;4.53;;
9854;SDS011;4966;48.112;9.282;2023-02-25T06:19:05;10.50;;;4.75;;
9854;SDS011;4966;48.112;9.282;2023-02-25T06:21:32;15.82;;;5.13;;
9854;SDS011;4966;48.112;9.282;2023-02-25T06:23:59;11.98;;;5.03;;
9854;SDS011;4966;48.112;9.282;2023-02-25T06:26:25;11.88;;;4.75;;
9854;SDS011;4966;48.112;9.282;2023-02-25T06:28:51;14.68;;;5.88;;
9854;SDS011;4966;48.112;9.282;2023-02-25T06:31:18;11.70;;;5.07;;
9854;SDS011;4966;48.112;9.282;2023-02-25T06:33:44;12.95;;;5.05;;
9854;SDS011;4966;48.112;9.282;2023-02-25T06:36:10;12.25;;;4.40;;
9854;SDS011;4966;48.112;9.282;2023-02-25T06:38:37;12.45;;;4.78;;
9854;SDS011;4966;48.112;9.282;2023-02-25T06:41:06;17.95;;;6.82;;
9854;SDS011;4966;48.112;9.282;2023-02-25T06:43:34;15.82;;;5.35;;
9854;SDS011;4966;48.112;9.282;2023-02-25T06:46:06;35.58;;;11.77;;
9854;SDS011;4966;48.112;9.282;2023-02-25T06:48:34;41.58;;;13.10;;
9854;SDS011;4966;48.112;9.282;2023-02-25T06:50:59;14.80;;;5.65;;
9854;SDS011;4966;48.112;9.282;2023-02-25T06:53:25;13.57;;;5.38;;
9854;SDS011;4966;48.112;9.282;2023-02-25T06:55:51;11.75;;;4.95;;
9854;SDS011;4966;48.112;9.282;2023-02-25T06:58:17;14.57;;;4.70;;
9854;SDS011;4966;48.112;9.282;2023-02-25T07:00:42;12.10;;;4.18;;
9854;SDS011;4966;48.112;9.282;2023-02-25T07:03:12;10.43;;;3.40;;
9854;SDS011;4966;48.112;9.282;2023-02-25T07:05:39;8.68;;;3.20;;
9854;SDS011;4966;48.112;9.282;2023-02-25T07:08:04;9.20;;;3.28;;
9854;SDS011;4966;48.112;9.282;2023-02-25T07:10:30;8.60;;;2.60;;
9854;SDS011;4966;48.112;9.282;2023-02-25T07:12:56;7.00;;;2.80;;
9854;SDS011;4966;48.112;9.282;2023-02-25T07:15:21;5.38;;;2.60;;
9854;SDS011;4966;48.112;9.282;2023-02-25T07:17:47;6.35;;;2.30;;
9854;SDS011;4966;48.112;9.282;2023-02-25T07:20:13;7.70;;;2.95;;
9854;SDS011;4966;48.112;9.282;2023-02-25T07:22:38;4.43;;;2.20;;
9854;SDS011;4966;48.112;9.282;2023-02-25T07:25:06;5.65;;;2.10;;
9854;SDS011;4966;48.112;9.282;2023-02-25T07:27:32;6.05;;;2.42;;
9854;SDS011;4966;48.112;9.282;2023-02-25T07:29:58;6.32;;;2.20;;
9854;SDS011;4966;48.112;9.282;2023-02-25T07:32:25;5.07;;;2.10;;
9854;SDS011;4966;48.112;9.282;2023-02-25T07:34:51;5.20;;;1.55;;
9854;SDS011;4966;48.112;9.282;2023-02-25T07:37:16;4.60;;;1.77;;
9854;SDS011;4966;48.112;9.282;2023-02-25T07:39:41;6.05;;;2.10;;
9854;SDS011;4966;48.112;9.282;2023-02-25T07:42:08;8.02;;;1.77;;
9854;SDS011;4966;48.112;9.282;2023-02-25T07:44:33;7.43;;;2.30;;
9854;SDS011;4966;48.112;9.282;2023-02-25T07:46:59;7.22;;;2.10;;
9854;SDS011;4966;48.112;9.282;2023-02-25T07:49:25;5.97;;;1.90;;
9854;SDS011;4966;48.112;9.282;2023-02-25T07:51:50;5.95;;;2.08;;
9854;SDS011;4966;48.112;9.282;2023-02-25T07:54:16;5.20;;;2.13;;
9854;SDS011;4966;48.112;9.282;2023-02-25T07:56:45;4.13;;;1.45;;
9854;SDS011;4966;48.112;9.282;2023-02-25T07:59:11;5.30;;;1.50;;
9854;SDS011;4966;48.112;9.282;2023-02-25T08:01:36;2.35;;;0.95;;
9854;SDS011;4966;48.112;9.282;2023-02-25T08:04:03;4.78;;;1.50;;
9854;SDS011;4966;48.112;9.282;2023-02-25T08:06:30;7.22;;;1.35;;
9854;SDS011;4966;48.112;9.282;2023-02-25T08:08:58;6.70;;;1.30;;
9854;SDS011;4966;48.112;9.282;2023-02-25T08:11:24;5.93;;;0.90;;
9854;SDS011;4966;48.112;9.282;2023-02-25T08:13:50;4.15;;;1.02;;
9854;SDS011;4966;48.112;9.282;2023-02-25T08:16:16;4.47;;;1.35;;
9854;SDS011;4966;48.112;9.282;2023-02-25T08:18:43;2.35;;;0.95;;
9854;SDS011;4966;48.112;9.282;2023-02-25T08:21:09;2.38;;;0.90;;
9854;SDS011;4966;48.112;9.282;2023-02-25T08:23:36;5.55;;;0.90;;
9854;SDS011;4966;48.112;9.282;2023-02-25T08:26:02;2.65;;;0.50;;
9854;SDS011;4966;48.112;9.282;2023-02-25T08:28:28;4.20;;;1.10;;
9854;SDS011;4966;48.112;9.282;2023-02-25T08:30:57;1.88;;;0.50;;
9854;SDS011;4966;48.112;9.282;2023-02-25T08:33:23;3.55;;;1.15;;
9854;SDS011;4966;48.112;9.282;2023-02-25T08:35:49;6.68;;;1.30;;
9854;SDS011;4966;48.112;9.282;2023-02-25T08:38:15;2.42;;;0.50;;
9854;SDS011;4966;48.112;9.282;2023-02-25T08:40:41;6.22;;;0.90;;
9854;SDS011;4966;48.112;9.282;2023-02-25T08:43:07;1.02;;;0.50;;
9854;SDS011;4966;48.112;9.282;2023-02-25T08:45:35;2.78;;;0.50;;
9854;SDS011;4966;48.112;9.282;2023-02-25T08:48:02;3.28;;;0.45;;
9854;SDS011;4966;48.112;9.282;2023-02-25T08:50:27;4.53;;;0.65;;
9854;SDS011;4966;48.112;9.282;2023-02-25T08:52:53;0.90;;;0.40;;
9854;SDS011;4966;48.112;9.282;2023-02-25T08:55:19;2.38;;;0.90;;
9854;SDS011;4966;48.112;9.282;2023-02-25T08:57:48;3.78;;;0.88;;
9854;SDS011;4966;48.112;9.282;2023-02-25T09:00:14;1.00;;;0.45;;
9854;SDS011;4966;48.112;9.282;2023-02-25T09:02:40;2.28;;;0.50;;
9854;SDS011;4966;48.112;9.282;2023-02-25T09:05:06;2.78;;;0.70;;
9854;SDS011;4966;48.112;9.282;2023-02-25T09:07:31;2.00;;;0.90;;
9854;SDS011;4966;48.112;9.282;2023-02-25T09:09:57;1.20;;;0.40;;
9854;SDS011;4966;48.112;9.282;2023-02-25T09:12:22;1.50;;;0.50;;
9854;SDS011;4966;48.112;9.282;2023-02-25T09:14:48;3.70;;;0.73;;
9854;SDS011;4966;48.112;9.282;2023-02-25T09:17:14;1.13;;;0.50;;
9854;SDS011;4966;48.112;9.282;2023-02-25T09:19:40;4.70;;;1.05;;
9854;SDS011;4966;48.112;9.282;2023-02-25T09:22:06;1.50;;;0.60;;
9854;SDS011;4966;48.112;9.282;2023-02-25T09:24:33;3.17;;;0.90;;
9854;SDS011;4966;48.112;9.282;2023-02-25T09:26:59;1.90;;;0.60;;
9854;SDS011;4966;48.112;9.282;2023-02-25T09:29:31;1.67;;;0.65;;
9854;SDS011;4966;48.112;9.282;2023-02-25T09:31:57;4.25;;;0.68;;
9854;SDS011;4966;48.112;9.282;2023-02-25T09:34:23;3.45;;;0.80;;
9854;SDS011;4966;48.112;9.282;2023-02-25T09:36:48;0.60;;;0.40;;
9854;SDS011;4966;48.112;9.282;2023-02-25T09:39:13;2.20;;;0.82;;
9854;SDS011;4966;48.112;9.282;2023-02-25T09:41:48;4.63;;;0.98;;
9854;SDS011;4966;48.112;9.282;2023-02-25T09:44:19;2.53;;;0.65;;
9854;SDS011;4966;48.112;9.282;2023-02-25T09:49:34;4.90;;;1.10;;
9854;SDS011;4966;48.112;9.282;2023-02-25T09:52:06;2.35;;;0.77;;
9854;SDS011;4966;48.112;9.282;2023-02-25T09:54:41;1.88;;;0.57;;
9854;SDS011;4966;48.112;9.282;2023-02-25T09:57:19;4.10;;;0.80;;
9854;SDS011;4966;48.112;9.282;2023-02-25T09:59:47;3.38;;;1.00;;
9854;SDS011;4966;48.112;9.282;2023-02-25T10:07:50;4.80;;;0.93;;
9854;SDS011;4966;48.112;9.282;2023-02-25T10:13:15;2.50;;;0.60;;
9854;SDS011;4966;48.112;9.282;2023-02-25T10:24:34;2.38;;;0.90;;
9854;SDS011;4966;48.112;9.282;2023-02-25T10:29:50;5.68;;;1.23;;
9854;SDS011;4966;48.112;9.282;2023-02-25T10:34:54;1.13;;;0.50;;
9854;SDS011;4966;48.112;9.282;2023-02-25T10:37:24;3.25;;;0.95;;
9854;SDS011;4966;48.112;9.282;2023-02-25T10:39:55;2.40;;;0.85;;
9854;SDS011;4966;48.112;9.282;2023-02-25T10:42:22;2.85;;;0.90;;
9854;SDS011;4966;48.112;9.282;2023-02-25T10:44:48;1.92;;;0.90;;
9854;SDS011;4966;48.112;9.282;2023-02-25T10:47:22;2.60;;;0.90;;
9854;SDS011;4966;48.112;9.282;2023-02-25T10:52:54;2.30;;;0.90;;
9854;SDS011;4966;48.112;9.282;2023-02-25T10:55:26;4.57;;;0.90;;
9854;SDS011;4966;48.112;9.282;2023-02-25T10:57:57;2.20;;;0.70;;
9854;SDS011;4966;48.112;9.282;2023-02-25T11:00:29;3.05;;;1.23;;
9854;SDS011;4966;48.112;9.282;2023-02-25T11:02:58;2.08;;;0.98;;
9854;SDS011;4966;48.112;9.282;2023-02-25T11:08:00;2.22;;;0.98;;
9854;SDS011;4966;48.112;9.282;2023-02-25T11:10:29;1.83;;;1.00;;
9854;SDS011;4966;48.112;9.282;2023-02-25T11:12:55;1.90;;;0.82;;
9854;SDS011;4966;48.112;9.282;2023-02-25T11:15:35;4.18;;;1.30;;
9854;SDS011;4966;48.112;9.282;2023-02-25T11:18:20;6.88;;;1.70;;
9854;SDS011;4966;48.112;9.282;2023-02-25T11:20:48;6.15;;;1.75;;
9854;SDS011;4966;48.112;9.282;2023-02-25T11:23:22;2.35;;;0.93;;
9854;SDS011;4966;48.112;9.282;2023-02-25T11:25:56;1.85;;;0.90;;
9854;SDS011;4966;48.112;9.282;2023-02-25T11:31:06;1.77;;;0.70;;
9854;SDS011;4966;48.112;9.282;2023-02-25T11:33:36;3.00;;;0.90;;
9854;SDS011;4966;48.112;9.282;2023-02-25T11:36:04;4.85;;;1.10;;
9854;SDS011;4966;48.112;9.282;2023-02-25T11:38:35;2.78;;;0.90;;
9854;SDS011;4966;48.112;9.282;2023-02-25T11:41:03;2.00;;;0.80;;
9854;SDS011;4966;48.112;9.282;2023-02-25T11:46:05;1.75;;;0.93;;
9854;SDS011;4966;48.112;9.282;2023-02-25T11:48:51;2.35;;;0.80;;
9854;SDS011;4966;48.112;9.282;2023-02-25T11:51:35;4.18;;;1.10;;
9854;SDS011;4966;48.112;9.282;2023-02-25T11:56:56;3.78;;;1.17;;
9854;SDS011;4966;48.112;9.282;2023-02-25T11:59:37;3.80;;;1.27;;
9854;SDS011;4966;48.112;9.282;2023-02-25T12:02:19;7.85;;;1.50;;
9854;SDS011;4966;48.112;9.282;2023-02-25T12:04:58;4.82;;;1.88;;
9854;SDS011;4966;48.112;9.282;2023-02-25T12:22:01;2.13;;;1.00;;
9854;SDS011;4966;48.112;9.282;2023-02-25T12:27:16;2.80;;;0.85;;
9854;SDS011;4966;48.112;9.282;2023-02-25T12:32:33;2.15;;;0.80;;
9854;SDS011;4966;48.112;9.282;2023-02-25T12:58:26;6.50;;;1.10;;
9854;SDS011;4966;48.112;9.282;2023-02-25T13:04:17;2.80;;;0.90;;
9854;SDS011;4966;48.112;9.282;2023-02-25T13:18:10;13.00;;;4.05;;
9854;SDS011;4966;48.112;9.282;2023-02-25T13:24:04;13.70;;;2.42;;
9854;SDS011;4966;48.112;9.282;2023-02-25T13:26:44;5.47;;;2.40;;
9854;SDS011;4966;48.112;9.282;2023-02-25T13:34:50;3.35;;;1.05;;
9854;SDS011;4966;48.112;9.282;2023-02-25T13:37:40;2.72;;;0.93;;
9854;SDS011;4966;48.112;9.282;2023-02-25T13:48:15;8.45;;;2.67;;
9854;SDS011;4966;48.112;9.282;2023-02-25T13:51:12;10.65;;;3.60;;
9854;SDS011;4966;48.112;9.282;2023-02-25T14:10:26;4.68;;;2.22;;
9854;SDS011;4966;48.112;9.282;2023-02-25T14:15:42;2.95;;;0.88;;
9854;SDS011;4966;48.112;9.282;2023-02-25T14:18:30;1.45;;;0.60;;
9854;SDS011;4966;48.112;9.282;2023-02-25T14:29:27;4.35;;;0.90;;
9854;SDS011;4966;48.112;9.282;2023-02-25T14:41:00;5.72;;;1.50;;
9854;SDS011;4966;48.112;9.282;2023-02-25T14:43:43;8.38;;;2.90;;
9854;SDS011;4966;48.112;9.282;2023-02-25T14:51:50;1.60;;;0.55;;
9854;SDS011;4966;48.112;9.282;2023-02-25T15:06:05;2.38;;;0.50;;
9854;SDS011;4966;48.112;9.282;2023-02-25T15:22:37;1.90;;;0.45;;
9854;SDS011;4966;48.112;9.282;2023-02-25T15:30:20;49.38;;;17.23;;
9854;SDS011;4966;48.112;9.282;2023-02-25T15:42:53;7.03;;;1.63;;
9854;SDS011;4966;48.112;9.282;2023-02-25T15:48:18;4.32;;;0.85;;
9854;SDS011;4966;48.112;9.282;2023-02-25T16:06:00;4.60;;;0.85;;
9854;SDS011;4966;48.112;9.282;2023-02-25T16:08:30;4.93;;;0.63;;
9854;SDS011;4966;48.112;9.282;2023-02-25T16:11:01;1.58;;;0.50;;
9854;SDS011;4966;48.112;9.282;2023-02-25T16:13:29;3.38;;;0.82;;
9854;SDS011;4966;48.112;9.282;2023-02-25T16:15:57;2.55;;;0.50;;
9854;SDS011;4966;48.112;9.282;2023-02-25T16:18:27;3.47;;;0.50;;
9854;SDS011;4966;48.112;9.282;2023-02-25T16:20:58;4.63;;;0.80;;
9854;SDS011;4966;48.112;9.282;2023-02-25T16:23:28;2.38;;;0.63;;
9854;SDS011;4966;48.112;9.282;2023-02-25T16:28:51;1.42;;;0.43;;
9854;SDS011;4966;48.112;9.282;2023-02-25T16:34:10;2.53;;;0.65;;
9854;SDS011;4966;48.112;9.282;2023-02-25T16:36:42;3.15;;;0.70;;
9854;SDS011;4966;48.112;9.282;2023-02-25T16:39:30;4.00;;;0.65;;
9854;SDS011;4966;48.112;9.282;2023-02-25T16:42:00;2.63;;;0.88;;
9854;SDS011;4966;48.112;9.282;2023-02-25T16:44:29;2.88;;;0.60;;
9854;SDS011;4966;48.112;9.282;2023-02-25T16:46:58;2.58;;;0.47;;
9854;SDS011;4966;48.112;9.282;2023-02-25T16:49:29;3.35;;;1.33;;
9854;SDS011;4966;48.112;9.282;2023-02-25T16:51:57;4.63;;;1.52;;
9854;SDS011;4966;48.112;9.282;2023-02-25T16:54:25;10.38;;;3.47;;
9854;SDS011;4966;48.112;9.282;2023-02-25T16:56:59;2.55;;;1.00;;
9854;SDS011;4966;48.112;9.282;2023-02-25T16:59:29;1.70;;;0.80;;
9854;SDS011;4966;48.112;9.282;2023-02-25T17:01:57;4.47;;;1.35;;
9854;SDS011;4966;48.112;9.282;2023-02-25T17:04:29;2.97;;;0.60;;
9854;SDS011;4966;48.112;9.282;2023-02-25T17:07:04;1.73;;;0.60;;
9854;SDS011;4966;48.112;9.282;2023-02-25T17:09:47;7.05;;;2.60;;
9854;SDS011;4966;48.112;9.282;2023-02-25T17:12:16;8.70;;;2.20;;
9854;SDS011;4966;48.112;9.282;2023-02-25T17:14:47;5.03;;;2.20;;
9854;SDS011;4966;48.112;9.282;2023-02-25T17:17:28;2.45;;;1.20;;
9854;SDS011;4966;48.112;9.282;2023-02-25T17:19:57;5.72;;;1.70;;
9854;SDS011;4966;48.112;9.282;2023-02-25T17:22:24;9.00;;;2.50;;
9854;SDS011;4966;48.112;9.282;2023-02-25T17:24:51;11.05;;;4.32;;
9854;SDS011;4966;48.112;9.282;2023-02-25T17:27:19;15.30;;;5.50;;
9854;SDS011;4966;48.112;9.282;2023-02-25T17:29:47;11.00;;;4.22;;
9854;SDS011;4966;48.112;9.282;2023-02-25T17:34:55;9.07;;;3.35;;
9854;SDS011;4966;48.112;9.282;2023-02-25T17:37:24;11.80;;;2.67;;
9854;SDS011;4966;48.112;9.282;2023-02-25T17:39:52;6.28;;;2.08;;
9854;SDS011;4966;48.112;9.282;2023-02-25T17:45:00;4.25;;;1.60;;
9854;SDS011;4966;48.112;9.282;2023-02-25T17:47:31;3.78;;;1.23;;
9854;SDS011;4966;48.112;9.282;2023-02-25T17:49:59;4.10;;;1.60;;
9854;SDS011;4966;48.112;9.282;2023-02-25T17:52:47;3.92;;;1.45;;
9854;SDS011;4966;48.112;9.282;2023-02-25T17:55:33;11.85;;;2.58;;
9854;SDS011;4966;48.112;9.282;2023-02-25T17:57:59;3.40;;;1.30;;
9854;SDS011;4966;48.112;9.282;2023-02-25T18:00:32;2.65;;;0.90;;
9854;SDS011;4966;48.112;9.282;2023-02-25T18:05:32;5.15;;;1.30;;
9854;SDS011;4966;48.112;9.282;2023-02-25T18:08:16;8.32;;;1.45;;
9854;SDS011;4966;48.112;9.282;2023-02-25T18:10:44;3.22;;;1.13;;
9854;SDS011;4966;48.112;9.282;2023-02-25T18:13:18;5.63;;;1.30;;
9854;SDS011;4966;48.112;9.282;2023-02-25T18:16:27;3.95;;;1.17;;
9854;SDS011;4966;48.112;9.282;2023-02-25T18:19:40;4.55;;;1.10;;
9854;SDS011;4966;48.112;9.282;2023-02-25T18:22:05;3.25;;;1.40;;
9854;SDS011;4966;48.112;9.282;2023-02-25T18:24:50;5.57;;;1.75;;
9854;SDS011;4966;48.112;9.282;2023-02-25T18:27:19;7.43;;;2.20;;
9854;SDS011;4966;48.112;9.282;2023-02-25T18:29:56;12.63;;;3.67;;
9854;SDS011;4966;48.112;9.282;2023-02-25T18:32:28;5.55;;;2.40;;
9854;SDS011;4966;48.112;9.282;2023-02-25T18:34:54;5.63;;;1.67;;
9854;SDS011;4966;48.112;9.282;2023-02-25T18:37:19;7.75;;;1.90;;
9854;SDS011;4966;48.112;9.282;2023-02-25T18:39:45;7.32;;;1.83;;
9854;SDS011;4966;48.112;9.282;2023-02-25T18:42:14;9.35;;;1.42;;
9854;SDS011;4966;48.112;9.282;2023-02-25T18:47:06;2.42;;;1.00;;
9854;SDS011;4966;48.112;9.282;2023-02-25T18:49:32;4.15;;;1.23;;
9854;SDS011;4966;48.112;9.282;2023-02-25T18:51:57;3.70;;;1.00;;
9854;SDS011;4966;48.112;9.282;2023-02-25T18:54:23;3.50;;;1.17;;
9854;SDS011;4966;48.112;9.282;2023-02-25T18:56:48;12.50;;;6.05;;
9854;SDS011;4966;48.112;9.282;2023-02-25T18:59:13;6.07;;;2.15;;
9854;SDS011;4966;48.112;9.282;2023-02-25T19:01:39;3.80;;;1.75;;
9854;SDS011;4966;48.112;9.282;2023-02-25T19:04:05;6.65;;;2.97;;
9854;SDS011;4966;48.112;9.282;2023-02-25T19:06:31;6.15;;;2.03;;
9854;SDS011;4966;48.112;9.282;2023-02-25T19:08:57;4.43;;;2.03;;
9854;SDS011;4966;48.112;9.282;2023-02-25T19:11:26;4.50;;;1.77;;
9854;SDS011;4966;48.112;9.282;2023-02-25T19:13:55;7.57;;;1.92;;
9854;SDS011;4966;48.112;9.282;2023-02-25T19:16:20;6.47;;;1.60;;
9854;SDS011;4966;48.112;9.282;2023-02-25T19:18:47;5.68;;;1.50;;
9854;SDS011;4966;48.112;9.282;2023-02-25T19:21:13;4.13;;;1.42;;
9854;SDS011;4966;48.112;9.282;2023-02-25T19:23:41;5.40;;;1.30;;
9854;SDS011;4966;48.112;9.282;2023-02-25T19:26:07;3.03;;;1.17;;
9854;SDS011;4966;48.112;9.282;2023-02-25T19:28:32;3.53;;;1.15;;
9854;SDS011;4966;48.112;9.282;2023-02-25T19:30:58;4.07;;;1.40;;
9854;SDS011;4966;48.112;9.282;2023-02-25T19:33:23;4.93;;;1.50;;
9854;SDS011;4966;48.112;9.282;2023-02-25T19:35:48;7.93;;;3.03;;